Time;durP1;ratioP1;P1;durP2;ratioP2;P2;SDS_P1;SDS_P2;PMS_P1;PMS_P2;Temp;Humidity;BMP_temperature;BMP_pressure;BME280_temperature;BME280_humidity;BME280_pressure;Samples;Min_cycle;Max_cycle;Signal;HPM_P1;HPM_P2
2024/03/27 00:09:10;;;;;;;25.50;10.40;;;;;;;6.03;61.97;97000.69;435319;1257;112029;-41
2024/03/27 00:19:17;;;;;;;20.50;9.40;;;;;;;5.91;62.13;96993.23;435402;1253;108045;-42
2024/03/27 00:29:24;;;;;;;12.30;7.40;;;;;;;5.89;62.30;96980.23;435353;1251;100594;-42
2024/03/27 00:39:30;;;;;;;15.40;8.10;;;;;;;5.95;62.45;96967.08;435269;1255;106623;-40
2024/03/27 00:49:37;;;;;;;13.20;7.20;;;;;;;5.94;62.45;96954.06;435348;1256;99770;-40
2024/03/27 00:59:44;;;;;;;10.60;6.20;;;;;;;5.87;62.38;96927.20;435214;1256;113563;-40
2024/03/27 01:09:50;;;;;;;11.10;6.10;;;;;;;5.94;62.55;96915.70;435289;1256;107705;-41
2024/03/27 01:19:57;;;;;;;13.60;7.70;;;;;;;5.96;62.56;96913.53;435331;1257;99286;-42
2024/03/27 01:30:04;;;;;;;9.60;6.20;;;;;;;5.90;62.52;96896.55;435285;1255;107788;-40
2024/03/27 01:40:12;;;;;;;13.70;6.00;;;;;;;5.91;62.49;96889.93;435324;1256;99370;-40
2024/03/27 01:50:22;;;;;;;14.00;6.80;;;;;;;5.92;62.58;96874.08;435299;1263;111186;-40
2024/03/27 02:00:29;;;;;;;18.90;7.40;;;;;;;5.83;62.54;96848.58;435133;1264;108464;-41
2024/03/27 02:10:36;;;;;;;14.70;7.10;;;;;;;5.69;62.71;96844.83;435452;1251;99291;-41
2024/03/27 02:20:44;;;;;;;13.10;7.00;;;;;;;5.62;62.94;96840.79;435345;1256;108437;-41
2024/03/27 02:30:50;;;;;;;12.30;6.10;;;;;;;5.56;63.01;96831.48;435151;1256;99327;-40
2024/03/27 02:41:13;;;;;;;18.10;8.50;;;;;;;5.54;63.20;96831.25;435697;1251;114284;31
2024/03/27 02:51:20;;;;;;;10.80;6.50;;;;;;;5.47;63.33;96823.71;435293;1256;109401;-39
2024/03/27 03:01:26;;;;;;;12.50;6.30;;;;;;;5.27;63.30;96821.84;435193;1253;99351;-40
2024/03/27 03:11:33;;;;;;;8.70;5.00;;;;;;;5.10;63.45;96820.32;435149;1253;108065;-40
2024/03/27 03:21:39;;;;;;;8.20;4.30;;;;;;;5.09;63.50;96808.41;435128;1252;99947;-40
2024/03/27 03:31:46;;;;;;;22.70;8.30;;;;;;;5.11;64.07;96794.61;435297;1255;112456;-41
2024/03/27 03:41:53;;;;;;;18.60;8.40;;;;;;;5.10;64.05;96791.61;435118;1256;107937;-40
2024/03/27 03:51:59;;;;;;;18.10;7.90;;;;;;;4.90;64.13;96789.80;435254;1253;100457;-39
2024/03/27 04:02:06;;;;;;;11.20;5.60;;;;;;;4.69;64.28;96772.90;435164;1255;108664;-40
2024/03/27 04:12:13;;;;;;;21.60;8.90;;;;;;;4.61;64.52;96767.92;435086;1253;99327;-40
2024/03/27 04:22:19;;;;;;;19.40;9.00;;;;;;;4.65;64.73;96778.91;435271;1255;112230;-40
2024/03/27 04:32:26;;;;;;;12.60;6.60;;;;;;;4.65;64.86;96771.78;435127;1256;108076;-40
2024/03/27 04:42:32;;;;;;;7.00;4.40;;;;;;;4.63;64.94;96760.23;435198;1253;99629;-39
2024/03/27 04:52:38;;;;;;;7.70;5.00;;;;;;;4.68;65.30;96748.27;435212;1255;109250;-39
2024/03/27 05:02:45;;;;;;;11.70;6.20;;;;;;;4.65;65.49;96748.86;435129;1256;99395;-40
2024/03/27 05:12:51;;;;;;;11.40;7.10;;;;;;;4.60;65.69;96745.13;435326;1253;112506;-39
2024/03/27 05:22:58;;;;;;;12.20;7.50;;;;;;;4.64;65.80;96748.05;435088;1256;109222;-39
2024/03/27 05:33:05;;;;;;;13.40;8.00;;;;;;;4.98;66.02;96736.69;435236;1253;100532;-40
2024/03/27 05:43:12;;;;;;;17.50;8.30;;;;;;;5.71;66.03;96738.71;434966;1255;427247;-40
2024/03/27 05:53:18;;;;;;;23.00;9.90;;;;;;;6.40;65.73;96735.60;435317;1253;99364;-39
2024/03/27 06:03:25;;;;;;;21.10;9.50;;;;;;;7.17;65.34;96737.94;435268;1256;112417;-41
2024/03/27 06:13:32;;;;;;;19.00;7.70;;;;;;;7.90;64.58;96733.27;435184;1254;107773;-40
2024/03/27 06:23:38;;;;;;;15.80;8.00;;;;;;;8.65;64.01;96720.89;435196;1255;100616;-39
2024/03/27 06:33:44;;;;;;;16.80;8.10;;;;;;;9.29;62.84;96715.20;435250;1252;108348;-40
2024/03/27 06:43:51;;;;;;;12.00;6.80;;;;;;;10.03;62.09;96710.73;435128;1255;99369;-39
2024/03/27 06:53:58;;;;;;;14.50;8.00;;;;;;;10.89;60.94;96709.83;435282;1255;112473;-42
2024/03/27 07:04:03;;;;;;;16.60;8.40;;;;;;;11.80;60.05;96707.45;435219;1255;108466;-40
2024/03/27 07:14:10;;;;;;;15.60;8.10;;;;;;;12.16;58.14;96698.95;435246;1252;99331;-40
2024/03/27 07:24:17;;;;;;;9.40;6.00;;;;;;;12.97;58.01;96689.30;435243;1255;109085;-40
2024/03/27 07:34:25;;;;;;;10.00;4.90;;;;;;;13.65;56.33;96679.73;435271;1256;100564;-40
2024/03/27 07:44:32;;;;;;;11.10;5.20;;;;;;;13.87;54.46;96664.56;435291;1256;111882;-40
2024/03/27 07:54:38;;;;;;;10.70;4.90;;;;;;;14.06;52.99;96642.45;435057;1255;107421;-39
2024/03/27 08:04:44;;;;;;;9.50;4.00;;;;;;;14.57;50.84;96635.77;435103;1255;100582;-39
2024/03/27 08:14:51;;;;;;;9.60;4.80;;;;;;;15.05;49.73;96649.57;435124;1255;108495;-40
2024/03/27 08:24:58;;;;;;;8.40;4.40;;;;;;;15.60;48.57;96652.02;435099;1256;100626;-40
2024/03/27 08:35:05;;;;;;;12.30;4.30;;;;;;;15.86;46.82;96652.08;435107;1256;113070;-41
2024/03/27 08:55:15;;;;;;;14.00;4.30;;;;;;;16.22;45.28;96642.73;435323;1253;100591;-40
2024/03/27 09:05:21;;;;;;;8.30;3.80;;;;;;;16.35;45.92;96648.31;435118;1256;108889;-40
2024/03/27 09:15:28;;;;;;;7.00;3.40;;;;;;;16.44;46.21;96643.31;435113;1256;100578;-39
2024/03/27 09:25:34;;;;;;;7.00;2.50;;;;;;;16.82;46.35;96642.19;435200;1255;112734;-41
2024/03/27 09:35:42;;;;;;;12.00;3.70;;;;;;;16.92;45.64;96645.67;435174;1255;108565;-41
2024/03/27 09:45:48;;;;;;;9.00;3.00;;;;;;;17.04;46.49;96638.92;435023;1253;100473;-41
2024/03/27 09:55:56;;;;;;;6.80;2.80;;;;;;;17.18;45.82;96642.77;435110;1255;107611;-40
2024/03/27 10:16:07;;;;;;;6.90;2.10;;;;;;;17.35;46.61;96629.67;435184;1253;112806;-40
2024/03/27 10:26:14;;;;;;;5.50;2.50;;;;;;;17.78;46.38;96616.10;435110;1256;109771;-40
2024/03/27 10:36:18;;;;;;;4.60;1.20;;;;;;;18.14;47.27;96607.79;435127;1253;100600;-41
2024/03/27 10:46:28;;;;;;;9.30;1.90;;;;;;;18.46;47.23;96606.95;435131;1256;108464;-40
2024/03/27 10:56:36;;;;;;;13.30;2.10;;;;;;;18.46;47.32;96606.28;435237;1253;100693;-40
2024/03/27 11:06:43;;;;;;;4.80;1.30;;;;;;;18.50;47.20;96609.09;435001;1255;111712;-41
2024/03/27 11:16:52;;;;;;;5.30;1.20;;;;;;;18.65;47.51;96603.65;435006;1255;109579;-39
2024/03/27 11:26:59;;;;;;;;;;;;;;;18.80;47.14;96590.48;435121;1255;100571;-41
2024/03/27 11:37:06;;;;;;;5.10;1.70;;;;;;;18.87;46.96;96583.98;435028;1255;107766;-40
2024/03/27 11:47:13;;;;;;;5.30;2.10;;;;;;;18.86;46.99;96582.41;435064;1253;100629;-41
2024/03/27 11:57:20;;;;;;;4.50;2.60;;;;;;;18.88;46.72;96574.99;435175;1255;112241;-41
2024/03/27 12:07:27;;;;;;;7.20;2.90;;;;;;;18.69;46.73;96569.39;435169;1255;108137;-40
2024/03/27 12:17:36;;;;;;;6.70;2.60;;;;;;;18.69;46.76;96561.04;435120;1252;99375;-41
2024/03/27 12:27:43;;;;;;;4.00;2.20;;;;;;;18.68;46.33;96553.84;435043;1256;109722;-40
2024/03/27 12:37:50;;;;;;;4.10;1.90;;;;;;;18.63;45.79;96551.89;434997;1255;100591;-40
2024/03/27 12:47:56;;;;;;;4.30;2.10;;;;;;;18.65;45.44;96553.11;435033;1257;112624;-40
2024/03/27 12:58:03;;;;;;;7.00;2.20;;;;;;;18.71;46.29;96549.09;435126;1256;107821;-40
2024/03/27 13:08:10;;;;;;;6.30;1.90;;;;;;;18.82;46.27;96542.65;435262;1255;100618;-40
2024/03/27 13:18:17;;;;;;;2.40;1.70;;;;;;;18.84;45.64;96523.91;435146;1257;108471;-40
2024/03/27 13:28:24;;;;;;;4.00;2.10;;;;;;;18.96;45.13;96505.52;435099;1254;100629;-41
2024/03/27 13:38:30;;;;;;;9.00;1.30;;;;;;;18.98;44.46;96489.84;435222;1256;113571;-40
2024/03/27 13:48:37;;;;;;;6.10;1.60;;;;;;;18.74;44.29;96487.80;435171;1257;108378;-40
2024/03/27 13:58:42;;;;;;;4.80;1.80;;;;;;;18.92;44.65;96480.47;435005;1254;100594;-41
2024/03/27 14:08:49;;;;;;;6.30;3.20;;;;;;;19.01;43.96;96459.09;435145;1256;109939;-40
2024/03/27 14:18:55;;;;;;;6.10;3.60;;;;;;;19.14;44.27;96462.00;435086;1253;100869;-40
2024/03/27 14:29:03;;;;;;;7.20;3.30;;;;;;;18.88;45.26;96459.48;435606;1256;113145;-40
2024/03/27 14:39:11;;;;;;;5.30;3.00;;;;;;;18.77;45.83;96453.30;435149;1267;108265;-40
2024/03/27 14:59:27;;;;;;;3.90;3.40;;;;;;;18.76;46.64;96438.80;435038;1255;108575;-40
2024/03/27 15:09:34;;;;;;;9.20;3.40;;;;;;;18.20;46.94;96439.05;434936;1256;100588;-39
2024/03/27 15:19:51;;;;;;;9.40;3.60;;;;;;;17.74;47.85;96416.88;435059;1257;113342;-40
2024/03/27 15:40:06;;;;;;;9.30;1.90;;;;;;;17.79;48.76;96411.47;435217;1254;100617;-41
2024/03/27 15:50:13;;;;;;;4.60;1.80;;;;;;;17.98;47.79;96406.92;435224;1266;107438;-40
2024/03/27 16:00:20;;;;;;;7.40;3.40;;;;;;;17.96;47.56;96408.38;435132;1257;100575;-40
2024/03/27 16:10:27;;;;;;;7.20;3.50;;;;;;;17.73;48.51;96398.90;435199;1257;112758;-40
2024/03/27 16:20:35;;;;;;;5.10;3.80;;;;;;;17.52;49.17;96382.39;435146;1256;108612;-41
2024/03/27 16:30:42;;;;;;;13.00;4.80;;;;;;;17.29;49.53;96379.23;435136;1253;99471;-41
2024/03/27 16:40:49;;;;;;;8.10;3.70;;;;;;;17.03;50.07;96369.51;435260;1254;107816;-41
2024/03/27 16:50:56;;;;;;;4.40;3.90;;;;;;;16.74;50.74;96363.77;435164;1254;100587;-41
2024/03/27 17:01:03;;;;;;;;;;;;;;;16.41;51.39;96363.78;435260;1256;111655;-40
2024/03/27 17:11:10;;;;;;;10.90;5.00;;;;;;;16.07;51.84;96367.30;435108;1266;108553;-40
2024/03/27 17:21:16;;;;;;;11.00;5.80;;;;;;;15.76;52.29;96379.69;435147;1256;100600;-40
2024/03/27 17:31:23;;;;;;;10.40;6.10;;;;;;;15.48;52.69;96382.27;435087;1257;109513;-41
2024/03/27 17:41:30;;;;;;;12.50;6.80;;;;;;;15.21;53.22;96395.27;434974;1256;531352;-41
2024/03/27 17:51:37;;;;;;;12.20;6.40;;;;;;;14.92;53.73;96404.67;435183;1257;112140;-40
2024/03/27 18:01:44;;;;;;;12.40;5.10;;;;;;;14.70;54.65;96414.23;435188;1267;107627;-41
2024/03/27 18:11:51;;;;;;;14.10;6.40;;;;;;;14.49;55.18;96427.41;435253;1253;100593;-41
2024/03/27 18:22:02;;;;;;;20.00;8.60;;;;;;;14.20;55.72;96445.63;435287;1257;109488;-40
2024/03/27 18:32:23;;;;;;;18.50;8.30;;;;;;;13.92;56.45;96451.42;435144;1256;100594;-39
2024/03/27 18:42:30;;;;;;;22.20;9.20;;;;;;;13.70;56.90;96462.91;435125;1256;113388;-39
2024/03/27 18:52:37;;;;;;;15.30;8.50;;;;;;;13.50;57.12;96465.88;435111;1257;107862;-39
2024/03/27 19:02:44;;;;;;;20.10;11.00;;;;;;;13.33;57.51;96466.96;435167;1254;100580;-39
2024/03/27 19:12:51;;;;;;;15.50;10.40;;;;;;;13.21;57.91;96470.33;435149;1255;107614;-39
2024/03/27 19:22:57;;;;;;;28.40;19.30;;;;;;;13.11;58.11;96470.05;435113;1254;99285;-40
2024/03/27 19:33:07;;;;;;;18.70;12.60;;;;;;;13.01;58.24;96474.40;435155;1257;114279;-40
2024/03/27 19:43:14;;;;;;;14.30;7.20;;;;;;;12.93;58.50;96467.14;435185;1257;107394;-40
2024/03/27 19:53:23;;;;;;;14.50;6.50;;;;;;;12.81;58.69;96454.59;435216;1255;100597;-39
2024/03/27 20:03:30;;;;;;;11.90;5.90;;;;;;;12.72;58.73;96449.95;435336;1265;108947;-40
2024/03/27 20:13:37;;;;;;;14.70;7.40;;;;;;;12.56;58.97;96464.70;435163;1254;100588;-40
2024/03/27 20:23:43;;;;;;;10.60;7.50;;;;;;;12.41;59.34;96452.73;435124;1256;114274;-43
2024/03/27 20:33:50;;;;;;;16.80;7.40;;;;;;;12.31;59.72;96447.41;435137;1256;108457;-41
2024/03/27 20:43:57;;;;;;;15.20;8.20;;;;;;;12.22;59.92;96442.34;435116;1252;100619;-40
2024/03/27 20:54:03;;;;;;;15.90;8.90;;;;;;;12.21;60.25;96437.61;435143;1256;108329;-40
2024/03/27 21:04:10;;;;;;;21.40;7.90;;;;;;;12.23;60.41;96430.13;435070;1252;100572;-39
2024/03/27 21:14:17;;;;;;;24.70;8.10;;;;;;;12.13;60.64;96420.45;435283;1253;112444;-38
2024/03/27 21:24:23;;;;;;;14.20;7.40;;;;;;;11.98;60.98;96409.75;434959;1256;108445;-40
2024/03/27 21:34:30;;;;;;;20.30;9.40;;;;;;;11.80;61.16;96399.36;435235;1257;100600;-40
2024/03/27 21:44:36;;;;;;;13.00;7.20;;;;;;;11.69;61.30;96390.16;435122;1253;108009;-40
2024/03/27 21:54:43;;;;;;;17.30;8.30;;;;;;;11.59;61.54;96381.91;435138;1255;100678;-40
2024/03/27 22:04:50;;;;;;;17.10;10.10;;;;;;;11.30;61.90;96375.34;435158;1255;114012;-40
2024/03/27 22:14:56;;;;;;;20.90;10.20;;;;;;;11.01;62.31;96373.24;435010;1256;111600;-41
2024/03/27 22:25:03;;;;;;;16.30;10.20;;;;;;;10.78;62.61;96368.20;435153;1253;100585;-39
2024/03/27 22:35:10;;;;;;;17.70;10.40;;;;;;;10.57;62.96;96354.30;435229;1252;108273;-40
2024/03/27 22:45:17;;;;;;;21.30;10.70;;;;;;;10.31;63.21;96343.48;435403;1257;100587;-40
2024/03/27 22:55:24;;;;;;;14.60;8.40;;;;;;;10.16;63.53;96328.21;435176;1256;113114;-41
2024/03/27 23:05:30;;;;;;;16.30;7.30;;;;;;;10.17;63.91;96318.73;435032;1255;107285;-40
2024/03/27 23:15:37;;;;;;;19.30;10.60;;;;;;;10.23;64.31;96301.91;435206;1255;100662;-40
2024/03/27 23:25:43;;;;;;;17.00;8.50;;;;;;;10.17;64.59;96293.29;435156;1252;107380;-40
2024/03/27 23:35:49;;;;;;;14.70;7.70;;;;;;;10.11;65.01;96280.84;435162;1256;99850;-39
2024/03/27 23:45:58;;;;;;;17.60;8.30;;;;;;;10.14;65.22;96276.48;435083;1253;114593;-40
2024/03/27 23:56:05;;;;;;;16.10;7.30;;;;;;;10.20;65.60;96262.89;435081;1253;108510;-40
